Time;durP1;ratioP1;P1;durP2;ratioP2;P2;SDS_P1;SDS_P2;PMS_P1;PMS_P2;Temp;Humidity;BMP_temperature;BMP_pressure;BME280_temperature;BME280_humidity;BME280_pressure;Samples;Min_cycle;Max_cycle;Signal;HPM_P1;HPM_P2
2022/10/23 00:02:24;;;;;;;41.38;18.83;;;;;;;8.51;71.53;100439.59;5107435;28;20736;-27
2022/10/23 00:04:51;;;;;;;37.88;18.40;;;;;;;8.71;70.98;100448.50;5088954;28;20130;-26
2022/10/23 00:07:17;;;;;;;46.47;20.83;;;;;;;8.61;71.69;100456.81;5107445;28;20510;-27
2022/10/23 00:09:42;;;;;;;45.70;21.88;;;;;;;8.62;71.32;100462.94;5107088;28;20039;-26
2022/10/23 00:12:08;;;;;;;40.63;20.60;;;;;;;8.65;71.68;100459.91;5107216;28;20023;-27
2022/10/23 00:14:33;;;;;;;48.33;21.60;;;;;;;8.68;71.75;100456.84;5107327;28;20042;-28
2022/10/23 00:16:59;;;;;;;53.78;24.35;;;;;;;8.79;71.86;100443.00;5107749;28;20031;-26
2022/10/23 00:19:24;;;;;;;48.53;23.23;;;;;;;8.93;71.46;100443.03;5107323;28;20107;-25
2022/10/23 00:21:50;;;;;;;51.08;22.10;;;;;;;8.85;71.49;100455.50;5088678;28;20034;-28
2022/10/23 00:24:15;;;;;;;43.05;21.50;;;;;;;8.70;71.86;100452.16;5106754;28;20039;-31
2022/10/23 00:26:41;;;;;;;44.97;20.35;;;;;;;8.64;71.67;100439.66;5106928;28;20164;-31
2022/10/23 00:29:08;;;;;;;38.60;20.83;;;;;;;8.52;72.10;100420.78;5107270;28;20426;-26
2022/10/23 00:31:34;;;;;;;55.20;23.05;;;;;;;8.57;72.01;100438.81;5088531;28;20039;-27
2022/10/23 00:34:00;;;;;;;65.75;27.42;;;;;;;8.67;72.54;100441.13;5106878;28;20108;-27
2022/10/23 00:36:25;;;;;;;59.63;25.80;;;;;;;8.48;74.13;100439.97;5106813;28;20779;-29
2022/10/23 00:38:51;;;;;;;53.65;24.75;;;;;;;8.70;73.26;100436.19;5107080;28;20039;-26
2022/10/23 00:41:27;;;;;;;56.80;24.25;;;;;;;8.15;74.72;100390.06;5107237;28;20471;-25
2022/10/23 00:44:06;;;;;;;44.45;20.50;;;;;;;8.28;73.60;100397.31;5107145;28;20050;-26
2022/10/23 00:46:32;;;;;;;40.88;20.25;;;;;;;8.33;72.81;100422.28;5107181;28;20031;-28
2022/10/23 00:48:59;;;;;;;40.03;20.90;;;;;;;8.39;72.88;100400.22;5106857;28;20036;-26
2022/10/23 00:51:28;;;;;;;46.58;23.15;;;;;;;8.71;72.98;100423.75;5107783;28;20027;-26
2022/10/23 00:53:57;;;;;;;49.40;23.42;;;;;;;8.48;73.06;100416.88;5110841;28;20031;-29
2022/10/23 00:56:24;;;;;;;49.25;23.55;;;;;;;8.55;72.49;100414.25;5092483;28;20056;-25
2022/10/23 00:58:50;;;;;;;43.77;21.80;;;;;;;8.41;73.63;100421.34;5092437;28;20032;-26
2022/10/23 01:01:22;;;;;;;40.67;21.75;;;;;;;8.43;74.08;100437.91;5110937;28;20036;-28
2022/10/23 01:03:49;;;;;;;37.63;21.58;;;;;;;8.60;73.72;100422.44;5091951;28;20487;-26
2022/10/23 01:06:14;;;;;;;32.70;20.60;;;;;;;8.71;73.28;100427.22;5092368;28;20035;-26
2022/10/23 01:08:45;;;;;;;35.95;20.88;;;;;;;8.78;73.67;100428.06;5092174;28;20027;-28
2022/10/23 01:11:19;;;;;;;33.15;20.35;;;;;;;8.68;73.76;100403.66;5092261;28;20114;-26
2022/10/23 01:13:47;;;;;;;39.83;21.05;;;;;;;8.55;75.17;100420.38;5110611;28;20109;-28
2022/10/23 01:16:21;;;;;;;37.25;21.80;;;;;;;8.27;76.14;100396.47;5091874;28;20030;-27
2022/10/23 01:19:00;;;;;;;43.85;21.58;;;;;;;8.26;76.64;100416.13;5110794;28;20043;-27
2022/10/23 01:21:53;;;;;;;41.35;22.42;;;;;;;8.42;75.70;100402.53;5110594;28;20043;-27
2022/10/23 01:24:58;;;;;;;41.30;22.83;;;;;;;8.88;73.77;100414.41;5110267;28;20039;-26
2022/10/23 01:27:27;;;;;;;33.22;20.80;;;;;;;8.76;73.76;100411.47;5109320;28;20122;-27
2022/10/23 01:30:06;;;;;;;36.67;22.00;;;;;;;8.94;73.44;100423.44;5092106;28;21018;-26
2022/10/23 01:32:55;;;;;;;33.65;20.98;;;;;;;9.09;72.54;100424.06;5110219;28;20030;-29
2022/10/23 01:35:26;;;;;;;35.22;20.33;;;;;;;8.79;73.46;100410.28;5110467;28;20491;-27
2022/10/23 01:38:00;;;;;;;37.42;22.17;;;;;;;8.67;73.27;100385.28;5110227;28;20028;-27
2022/10/23 01:40:32;;;;;;;37.67;20.88;;;;;;;8.74;72.67;100381.59;5091820;28;20027;-27
2022/10/23 01:43:03;;;;;;;35.92;21.00;;;;;;;8.70;73.42;100406.13;5110177;28;20028;-26
2022/10/23 01:45:37;;;;;;;38.95;21.17;;;;;;;8.83;73.01;100424.81;5110059;28;20022;-25
2022/10/23 01:48:05;;;;;;;40.00;23.80;;;;;;;8.21;76.23;100387.47;5109905;28;20031;-25
2022/10/23 01:50:31;;;;;;;;;;;;;;;8.45;75.01;100404.78;5110328;28;20811;-25
2022/10/23 01:52:57;;;;;;;51.67;24.85;;;;;;;8.32;75.76;100379.97;5109864;28;19915;-28
2022/10/23 01:55:23;;;;;;;42.45;23.02;;;;;;;8.23;75.29;100369.50;5109834;28;20080;-29
2022/10/23 01:57:51;;;;;;;35.85;19.83;;;;;;;8.25;74.90;100385.22;5109703;28;20019;-26
2022/10/23 02:00:18;;;;;;;35.88;19.98;;;;;;;8.00;76.76;100404.28;5109814;28;20538;-25
2022/10/23 02:02:46;;;;;;;43.75;21.58;;;;;;;8.42;75.05;100413.16;5108957;28;20024;-27
2022/10/23 02:05:24;;;;;;;34.45;21.13;;;;;;;7.74;78.34;100420.00;5109633;28;20047;-26
2022/10/23 02:07:50;;;;;;;32.70;20.77;;;;;;;8.10;76.31;100416.41;5109632;28;20063;-29
2022/10/23 02:10:16;;;;;;;32.60;19.63;;;;;;;7.80;77.15;100390.03;5109701;28;20108;-28
2022/10/23 02:12:45;;;;;;;37.30;21.48;;;;;;;8.15;76.71;100419.28;5109339;28;20042;-26
2022/10/23 02:15:34;;;;;;;36.47;18.92;;;;;;;8.12;76.17;100417.84;5110025;28;20032;-31
2022/10/23 02:18:14;;;;;;;35.72;19.85;;;;;;;8.23;75.74;100421.81;5090979;28;20039;-29
2022/10/23 02:20:43;;;;;;;30.27;19.02;;;;;;;8.22;76.35;100436.13;5109193;28;20024;-28
2022/10/23 02:23:53;;;;;;;35.72;19.63;;;;;;;8.13;76.41;100422.16;5109182;28;20027;-28
2022/10/23 02:26:38;;;;;;;38.95;19.25;;;;;;;8.40;75.01;100419.69;5103889;28;20046;-28
2022/10/23 02:29:09;;;;;;;29.77;19.13;;;;;;;8.51;74.68;100435.09;5090461;28;20027;-26
2022/10/23 02:31:35;;;;;;;38.97;19.45;;;;;;;8.56;74.18;100418.53;5090628;28;20036;-25
2022/10/23 02:34:01;;;;;;;27.88;18.15;;;;;;;8.35;75.46;100404.28;5109167;28;20027;-26
2022/10/23 02:36:26;;;;;;;33.70;19.58;;;;;;;8.56;74.72;100413.22;5090353;28;20066;-26
2022/10/23 02:38:52;;;;;;;35.50;20.70;;;;;;;8.66;75.12;100432.28;5109111;28;20024;-25
2022/10/23 02:41:45;;;;;;;40.28;21.58;;;;;;;8.70;74.42;100438.84;5108920;28;20479;-29
2022/10/23 02:44:13;;;;;;;35.85;20.23;;;;;;;8.65;74.33;100441.31;5109135;28;20043;-25
2022/10/23 02:46:44;;;;;;;40.08;19.05;;;;;;;8.60;74.50;100435.75;5108764;28;20050;-30
2022/10/23 02:49:37;;;;;;;34.50;18.17;;;;;;;8.57;74.10;100433.50;5108880;28;20118;-26
2022/10/23 02:52:18;;;;;;;36.58;17.73;;;;;;;8.25;74.49;100438.38;5108633;28;20085;-27
2022/10/23 02:54:51;;;;;;;29.50;17.67;;;;;;;7.96;74.56;100426.13;5090531;28;20773;-28
2022/10/23 02:57:30;;;;;;;38.47;17.95;;;;;;;7.99;74.55;100442.50;5108899;28;20032;-27
2022/10/23 03:00:15;;;;;;;;;;;;;;;7.92;74.94;100448.75;5109224;28;20031;-29
2022/10/23 03:02:44;;;;;;;35.00;18.70;;;;;;;7.80;75.23;100456.41;5090131;28;20360;-27
2022/10/23 03:05:15;;;;;;;61.10;28.77;;;;;;;7.85;75.03;100440.75;5108252;28;20262;-26
2022/10/23 03:07:40;;;;;;;64.75;29.80;;;;;;;7.82;76.12;100465.00;5108624;28;20082;-25
2022/10/23 03:10:07;;;;;;;53.60;26.95;;;;;;;8.00;76.13;100462.72;5090224;28;20511;-26
2022/10/23 03:12:33;;;;;;;54.47;26.88;;;;;;;8.25;75.61;100446.34;5089569;28;20027;-27
2022/10/23 03:14:59;;;;;;;35.63;21.17;;;;;;;8.24;76.04;100439.41;5107985;28;20041;-27
2022/10/23 03:17:24;;;;;;;32.63;19.65;;;;;;;8.27;76.34;100427.56;5089963;28;20024;-27
2022/10/23 03:19:50;;;;;;;40.30;21.08;;;;;;;8.55;75.96;100446.16;5108162;28;20483;-27
2022/10/23 03:22:16;;;;;;;32.33;19.23;;;;;;;8.41;76.79;100466.50;5107839;28;20027;-28
2022/10/23 03:24:41;;;;;;;55.78;26.33;;;;;;;8.36;76.81;100467.06;5108032;28;20028;-31
2022/10/23 03:27:07;;;;;;;67.90;29.70;;;;;;;8.21;77.44;100455.72;5107880;28;20034;-27
2022/10/23 03:29:32;;;;;;;69.25;30.88;;;;;;;8.07;77.94;100443.34;5107910;28;20027;-28
2022/10/23 03:31:58;;;;;;;76.07;31.48;;;;;;;8.42;76.12;100457.53;5089738;28;20028;-26
2022/10/23 03:34:23;;;;;;;83.10;31.85;;;;;;;8.71;75.05;100469.75;5107881;28;20031;-26
2022/10/23 03:36:49;;;;;;;56.95;27.27;;;;;;;8.79;74.68;100469.59;5108246;28;20084;-26
2022/10/23 03:39:15;;;;;;;55.17;27.20;;;;;;;8.53;75.40;100450.84;5107897;28;20031;-26
2022/10/23 03:41:41;;;;;;;53.33;25.95;;;;;;;8.83;75.25;100483.34;5089413;28;20031;-26
2022/10/23 03:44:06;;;;;;;44.60;24.48;;;;;;;8.64;76.02;100466.22;5107565;28;20476;-26
2022/10/23 03:46:32;;;;;;;39.42;22.17;;;;;;;8.68;76.38;100451.53;5107696;28;20464;-26
2022/10/23 03:48:58;;;;;;;35.65;22.00;;;;;;;8.95;75.53;100472.94;5089446;28;20490;-26
2022/10/23 03:51:24;;;;;;;38.00;21.80;;;;;;;8.95;75.30;100463.13;5107948;28;20034;-25
2022/10/23 03:53:49;;;;;;;33.10;20.25;;;;;;;9.11;75.19;100483.22;5107670;28;20036;-28
2022/10/23 03:56:15;;;;;;;33.75;21.25;;;;;;;8.96;75.90;100469.25;5089021;28;20034;-32
2022/10/23 03:58:40;;;;;;;37.33;21.55;;;;;;;9.15;76.06;100468.50;5107319;28;20059;-26
2022/10/23 04:01:06;;;;;;;31.10;20.27;;;;;;;9.22;75.38;100447.25;5107571;28;20035;-26
2022/10/23 04:03:31;;;;;;;35.70;20.65;;;;;;;9.26;75.53;100464.47;5107719;28;20032;-30
2022/10/23 04:05:57;;;;;;;35.30;19.73;;;;;;;9.33;75.15;100475.13;5107325;28;20180;-30
2022/10/23 04:08:22;;;;;;;30.08;18.75;;;;;;;9.16;75.62;100470.16;5107282;28;20043;-26
2022/10/23 04:10:47;;;;;;;32.95;18.23;;;;;;;8.81;76.41;100456.13;5107255;28;20410;-25
2022/10/23 04:13:13;;;;;;;34.17;19.20;;;;;;;8.84;77.33;100451.19;5107026;28;20080;-28
2022/10/23 04:15:38;;;;;;;32.55;19.50;;;;;;;9.39;74.80;100484.97;5107254;28;20140;-26
2022/10/23 04:18:04;;;;;;;30.95;18.63;;;;;;;9.20;75.43;100484.72;5107549;28;20024;-26
2022/10/23 04:20:30;;;;;;;31.17;18.50;;;;;;;8.79;77.44;100471.44;5107180;28;20036;-29
2022/10/23 04:22:55;;;;;;;35.13;19.63;;;;;;;8.88;77.47;100475.56;5107395;28;20118;-31
2022/10/23 04:25:21;;;;;;;29.58;18.77;;;;;;;8.76;75.38;100456.69;5107002;28;20131;-25
2022/10/23 04:27:47;;;;;;;31.70;19.52;;;;;;;8.69;75.09;100473.66;5087882;28;20024;-27
2022/10/23 04:30:12;;;;;;;39.20;19.67;;;;;;;8.70;74.89;100465.44;5106927;28;20035;-30
2022/10/23 04:32:38;;;;;;;37.83;20.98;;;;;;;8.87;75.10;100465.97;5088483;28;20028;-26
2022/10/23 04:35:04;;;;;;;37.55;19.95;;;;;;;8.65;75.75;100462.56;5106965;28;20756;-27
2022/10/23 04:37:29;;;;;;;37.25;19.98;;;;;;;8.92;75.38;100490.13;5107218;28;20387;-26
2022/10/23 04:39:55;;;;;;;32.38;19.90;;;;;;;8.79;75.26;100477.59;5107266;28;20422;-26
2022/10/23 04:42:20;;;;;;;35.78;21.20;;;;;;;8.33;77.25;100459.47;5107234;28;20467;-26
2022/10/23 04:44:45;;;;;;;35.38;20.65;;;;;;;8.41;76.80;100455.88;5106540;28;20122;-28
2022/10/23 04:47:11;;;;;;;33.80;21.23;;;;;;;8.56;76.11;100461.06;5088579;28;20101;-28
2022/10/23 04:49:36;;;;;;;39.40;20.38;;;;;;;8.76;75.79;100472.63;5106889;28;20490;-27
2022/10/23 04:52:02;;;;;;;38.35;20.70;;;;;;;8.49;77.10;100474.34;5106911;28;20028;-29
2022/10/23 04:54:27;;;;;;;36.17;20.48;;;;;;;8.61;76.20;100466.66;5106489;28;20028;-26
2022/10/23 04:56:53;;;;;;;34.85;21.10;;;;;;;8.97;75.10;100481.53;5088571;28;20110;-28
2022/10/23 04:59:18;;;;;;;38.42;21.00;;;;;;;8.90;74.89;100459.41;5106789;28;20028;-25
2022/10/23 05:01:44;;;;;;;43.40;21.45;;;;;;;9.07;74.35;100479.31;5107311;28;20384;-27
2022/10/23 05:04:09;;;;;;;40.83;23.80;;;;;;;8.91;75.92;100471.69;5106863;28;20051;-27
2022/10/23 05:06:34;;;;;;;38.63;23.42;;;;;;;8.96;75.79;100485.22;5106721;28;20177;-29
2022/10/23 05:09:00;;;;;;;39.78;23.42;;;;;;;9.04;74.91;100485.06;5107218;28;20031;-25
2022/10/23 05:11:25;;;;;;;41.20;25.35;;;;;;;9.14;75.18;100492.69;5106798;28;20110;-29
2022/10/23 05:13:51;;;;;;;38.47;23.25;;;;;;;9.05;76.48;100505.31;5106541;28;20038;-27
2022/10/23 05:16:41;;;;;;;42.95;27.35;;;;;;;9.33;75.00;100505.22;5106703;28;20028;-26
2022/10/23 05:19:11;;;;;;;44.03;25.95;;;;;;;9.18;75.22;100507.22;5106694;28;20035;-30
2022/10/23 05:21:39;;;;;;;53.53;30.83;;;;;;;9.28;74.63;100505.00;5106709;28;20036;-29
2022/10/23 05:24:04;;;;;;;42.35;25.60;;;;;;;9.04;75.46;100490.38;5088314;28;20116;-27
2022/10/23 05:26:31;;;;;;;40.08;23.67;;;;;;;9.14;75.01;100508.63;5106454;28;20115;-27
2022/10/23 05:28:56;;;;;;;36.70;21.73;;;;;;;8.83;76.23;100529.34;5107046;28;20036;-30
2022/10/23 05:31:24;;;;;;;37.47;20.88;;;;;;;9.00;75.86;100521.06;5106874;28;20035;-26
2022/10/23 05:33:51;;;;;;;32.93;20.60;;;;;;;8.83;76.11;100536.53;5106508;28;20031;-26
2022/10/23 05:36:17;;;;;;;32.05;20.92;;;;;;;8.37;78.45;100507.75;5106225;28;20659;-26
2022/10/23 05:38:44;;;;;;;31.27;19.95;;;;;;;8.73;77.06;100530.72;5107359;28;20035;-27
2022/10/23 05:41:10;;;;;;;31.70;20.58;;;;;;;9.04;75.26;100532.94;5110393;28;20027;-26
2022/10/23 05:43:35;;;;;;;33.88;20.02;;;;;;;9.19;74.65;100511.50;5091563;28;20112;-26
2022/10/23 05:46:04;;;;;;;37.83;21.42;;;;;;;9.40;74.75;100534.53;5110361;28;20020;-25
2022/10/23 05:48:30;;;;;;;32.58;19.48;;;;;;;9.56;73.53;100541.31;5074747;28;20707;-27
2022/10/23 05:51:02;;;;;;;30.75;20.73;;;;;;;9.77;73.23;100535.06;5110508;28;20035;-26
2022/10/23 05:53:27;;;;;;;33.20;21.30;;;;;;;9.79;72.56;100507.19;5109690;28;20108;-27
2022/10/23 05:55:53;;;;;;;32.92;20.20;;;;;;;9.39;74.25;100506.25;5091575;28;20028;-27
2022/10/23 05:58:18;;;;;;;32.60;20.38;;;;;;;9.56;74.64;100542.16;5109645;28;20516;-31
2022/10/23 06:00:43;;;;;;;29.45;18.75;;;;;;;9.66;75.04;100552.41;5109907;28;20040;-28
2022/10/23 06:03:09;;;;;;;30.85;19.52;;;;;;;9.74;73.80;100546.09;5109699;28;20561;-27
2022/10/23 06:05:34;;;;;;;29.58;19.10;;;;;;;10.12;72.63;100564.19;5091162;28;20048;-28
2022/10/23 06:08:00;;;;;;;27.73;17.80;;;;;;;10.20;71.65;100556.00;5109284;28;20030;-27
2022/10/23 06:10:26;;;;;;;31.52;19.13;;;;;;;10.40;71.41;100556.88;5109300;28;20526;-28
2022/10/23 06:12:51;;;;;;;46.40;25.08;;;;;;;10.63;71.38;100566.28;5109368;28;20098;-27
2022/10/23 06:15:17;;;;;;;37.28;24.70;;;;;;;10.83;70.72;100561.75;5109527;28;20028;-27
2022/10/23 06:17:42;;;;;;;32.00;18.10;;;;;;;11.10;69.86;100567.00;5109688;28;20051;-26
2022/10/23 06:20:08;;;;;;;32.90;20.15;;;;;;;11.30;69.30;100572.28;5109257;28;20055;-27
2022/10/23 06:22:33;;;;;;;25.92;19.10;;;;;;;11.30;69.24;100566.09;5108827;28;20028;-29
2022/10/23 06:24:59;;;;;;;30.10;18.65;;;;;;;11.38;69.09;100573.88;5109538;28;20027;-28
2022/10/23 06:27:24;;;;;;;28.77;18.48;;;;;;;11.31;68.56;100557.91;5109202;28;20073;-27
2022/10/23 06:29:49;;;;;;;27.63;18.45;;;;;;;11.56;68.55;100576.69;5109349;28;20052;-27
2022/10/23 06:32:15;;;;;;;27.20;18.48;;;;;;;11.39;69.50;100572.88;5108898;28;20475;-32
2022/10/23 06:34:40;;;;;;;29.88;18.38;;;;;;;11.81;68.96;100581.28;5108975;28;20031;-26
2022/10/23 06:37:06;;;;;;;36.83;23.13;;;;;;;12.04;69.06;100581.59;5108637;28;20427;-27
2022/10/23 06:39:31;;;;;;;32.47;21.00;;;;;;;12.13;68.41;100573.31;5109018;28;20108;-25
2022/10/23 06:41:56;;;;;;;23.83;16.48;;;;;;;12.27;67.72;100575.66;5109273;28;20024;-29
2022/10/23 06:44:22;;;;;;;28.30;17.70;;;;;;;12.48;67.50;100583.53;5108700;28;20031;-26
2022/10/23 06:46:48;;;;;;;26.95;17.02;;;;;;;12.61;67.64;100584.25;5108484;28;20402;-27
2022/10/23 06:49:15;;;;;;;26.23;16.45;;;;;;;12.93;66.42;100596.72;5108011;28;20201;-26
2022/10/23 06:51:41;;;;;;;24.85;16.30;;;;;;;13.16;65.24;100599.56;5108279;28;20035;-27
2022/10/23 06:54:06;;;;;;;21.23;14.85;;;;;;;13.46;63.85;100590.78;5108421;28;20537;-26
2022/10/23 06:56:33;;;;;;;24.67;14.90;;;;;;;13.36;63.89;100587.81;5108321;28;20062;-26
2022/10/23 06:58:59;;;;;;;21.15;14.10;;;;;;;13.53;63.36;100596.91;5108636;28;20490;-28
2022/10/23 07:01:24;;;;;;;20.38;13.73;;;;;;;13.86;62.73;100596.44;5108765;28;20045;-26
2022/10/23 07:03:50;;;;;;;24.63;14.32;;;;;;;14.06;62.33;100588.13;5108313;28;20067;-26
2022/10/23 07:06:15;;;;;;;21.30;12.98;;;;;;;14.34;62.09;100600.06;5108538;28;20108;-29
2022/10/23 07:08:41;;;;;;;20.15;11.90;;;;;;;14.63;60.46;100594.91;5108393;28;20451;-27
2022/10/23 07:11:09;;;;;;;21.98;12.07;;;;;;;14.92;59.74;100587.78;5108689;28;20027;-27
2022/10/23 07:13:35;;;;;;;19.95;11.25;;;;;;;15.19;59.54;100593.47;5108466;28;20127;-26
2022/10/23 07:16:12;;;;;;;19.13;11.80;;;;;;;15.28;58.52;100564.34;5108483;28;20066;-27
2022/10/23 07:18:38;;;;;;;18.30;13.87;;;;;;;15.53;58.19;100577.50;5089702;28;20027;-26
2022/10/23 07:21:03;;;;;;;20.45;12.23;;;;;;;15.86;56.96;100576.00;5108258;28;20350;-27
2022/10/23 07:23:29;;;;;;;19.67;10.88;;;;;;;16.21;55.62;100600.00;5108490;28;20100;-27
2022/10/23 07:25:54;;;;;;;19.20;10.95;;;;;;;16.46;55.47;100596.09;5108173;28;20410;-27
2022/10/23 07:28:19;;;;;;;17.45;10.27;;;;;;;16.86;55.16;100589.75;5108013;28;20024;-28
2022/10/23 07:30:55;;;;;;;17.20;9.73;;;;;;;17.22;53.69;100590.22;5107961;28;20066;-27
2022/10/23 07:33:20;;;;;;;18.27;10.38;;;;;;;17.41;53.33;100596.13;5107840;28;20030;-29
2022/10/23 07:35:46;;;;;;;15.43;9.68;;;;;;;17.81;52.15;100584.16;5108177;28;20027;-28
2022/10/23 07:38:12;;;;;;;19.55;8.82;;;;;;;18.13;51.46;100580.72;5089657;28;20027;-28
2022/10/23 07:40:38;;;;;;;17.33;9.20;;;;;;;18.55;50.97;100561.06;5107758;28;20039;-28
2022/10/23 07:43:03;;;;;;;14.70;7.22;;;;;;;19.09;48.82;100598.72;5107854;28;20035;-28
2022/10/23 07:45:29;;;;;;;14.32;6.80;;;;;;;19.42;48.26;100596.69;5107927;28;20031;-28
2022/10/23 07:47:54;;;;;;;14.80;6.85;;;;;;;19.49;48.01;100570.19;5107599;28;20020;-28
2022/10/23 07:50:19;;;;;;;13.63;6.90;;;;;;;19.74;47.21;100574.13;5107743;28;20056;-27
2022/10/23 07:52:45;;;;;;;17.65;7.20;;;;;;;19.99;46.71;100568.72;5107631;28;20023;-27
2022/10/23 07:55:10;;;;;;;16.67;6.97;;;;;;;20.34;46.81;100564.41;5107614;28;20475;-27
2022/10/23 07:57:38;;;;;;;16.75;6.72;;;;;;;20.75;45.64;100575.22;5107745;28;20035;-28
2022/10/23 08:00:05;;;;;;;15.98;6.30;;;;;;;21.18;43.86;100567.47;5089138;28;20028;-27
2022/10/23 08:02:30;;;;;;;13.45;5.80;;;;;;;21.57;41.77;100565.97;5106356;28;20035;-26
2022/10/23 08:04:56;;;;;;;24.25;6.25;;;;;;;21.79;40.59;100543.88;5089023;28;20058;-27
2022/10/23 08:07:22;;;;;;;15.60;6.20;;;;;;;21.95;40.35;100536.44;5107517;28;20034;-27
2022/10/23 08:09:47;;;;;;;22.40;6.53;;;;;;;22.30;39.35;100567.94;5107465;28;20547;-27
2022/10/23 08:12:13;;;;;;;20.65;5.78;;;;;;;22.59;39.09;100561.69;5107442;28;20374;-26
2022/10/23 08:14:38;;;;;;;20.35;6.28;;;;;;;22.78;38.39;100570.75;5106991;28;20547;-26
2022/10/23 08:17:04;;;;;;;10.70;6.20;;;;;;;22.90;38.77;100566.81;5106843;28;20046;-27
2022/10/23 08:19:29;;;;;;;20.27;6.68;;;;;;;23.02;38.39;100569.97;5107351;28;20031;-27
2022/10/23 08:21:56;;;;;;;13.15;5.90;;;;;;;23.01;38.36;100552.00;5107560;28;20424;-28
2022/10/23 08:24:22;;;;;;;13.73;5.60;;;;;;;23.36;37.72;100575.25;5107200;28;20059;-29
2022/10/23 08:26:48;;;;;;;11.95;5.50;;;;;;;23.32;36.92;100579.66;5106886;28;20028;-29
2022/10/23 08:29:14;;;;;;;14.40;6.00;;;;;;;23.23;37.21;100555.03;5088570;28;20043;-29
2022/10/23 08:31:39;;;;;;;13.30;5.70;;;;;;;23.52;36.28;100573.16;5106949;28;20023;-27
2022/10/23 08:34:05;;;;;;;20.55;5.60;;;;;;;23.41;35.14;100577.09;5088782;28;20514;-28
2022/10/23 08:36:32;;;;;;;16.65;5.85;;;;;;;23.73;35.68;100572.84;5088714;28;20832;-26
2022/10/23 08:38:57;;;;;;;37.13;7.38;;;;;;;23.74;35.42;100569.00;5107301;28;20435;-27
2022/10/23 08:41:35;;;;;;;16.92;6.82;;;;;;;23.78;36.06;100576.34;5107318;28;20024;-28
2022/10/23 08:44:16;;;;;;;60.83;34.20;;;;;;;23.77;35.89;100547.50;5107182;28;20028;-26
2022/10/23 08:46:48;;;;;;;386.55;253.43;;;;;;;24.08;35.72;100549.72;5088620;28;20036;-28
2022/10/23 08:49:20;;;;;;;489.13;324.55;;;;;;;24.13;35.71;100551.56;5106266;28;20491;-27
2022/10/23 08:51:49;;;;;;;695.25;513.95;;;;;;;24.25;35.38;100568.25;5107107;28;20106;-29
2022/10/23 08:54:41;;;;;;;26.58;8.75;;;;;;;24.22;35.78;100577.03;5106916;28;20031;-27
2022/10/23 08:57:15;;;;;;;638.83;518.78;;;;;;;24.42;35.30;100573.97;5106986;28;20035;-28
2022/10/23 08:59:57;;;;;;;69.00;46.83;;;;;;;24.38;35.65;100578.38;5107174;28;20024;-33
2022/10/23 09:02:26;;;;;;;938.63;701.35;;;;;;;24.43;35.25;100582.94;5088253;28;20063;-27
2022/10/23 09:04:54;;;;;;;775.10;589.67;;;;;;;24.63;35.28;100579.06;5106911;28;20051;-27
2022/10/23 09:07:54;;;;;;;691.38;551.70;;;;;;;24.96;35.33;100585.25;5088168;28;20079;-28
2022/10/23 09:10:22;;;;;;;408.90;295.58;;;;;;;24.96;33.93;100592.66;5054880;28;20040;-28
2022/10/23 09:12:48;;;;;;;434.10;336.02;;;;;;;24.97;34.16;100583.38;5108184;28;20114;-28
2022/10/23 09:15:41;;;;;;;56.40;34.53;;;;;;;24.75;34.42;100587.56;5110688;28;20115;-27
2022/10/23 09:18:12;;;;;;;335.50;249.05;;;;;;;24.96;34.47;100581.72;5110711;28;20046;-30
2022/10/23 09:20:40;;;;;;;431.00;332.08;;;;;;;25.08;33.97;100579.31;5110312;28;20023;-27
2022/10/23 09:23:11;;;;;;;24.33;15.85;;;;;;;25.02;34.42;100602.34;5110799;28;20478;-31
2022/10/23 09:25:39;;;;;;;1132.22;818.65;;;;;;;25.28;34.22;100583.56;5110494;28;20028;-27
2022/10/23 09:28:05;;;;;;;926.80;697.50;;;;;;;25.49;33.62;100578.47;5110371;28;20410;-29
2022/10/23 09:30:39;;;;;;;635.35;522.33;;;;;;;25.57;33.61;100568.75;5110021;28;20474;-27
2022/10/23 09:33:15;;;;;;;1060.85;760.15;;;;;;;25.94;33.60;100594.97;5110330;28;20791;-27
2022/10/23 09:36:02;;;;;;;569.40;431.05;;;;;;;25.70;33.61;100588.94;5110165;28;20031;-28
2022/10/23 09:38:32;;;;;;;910.05;659.00;;;;;;;25.57;33.67;100575.00;5110035;28;20673;-29
2022/10/23 09:41:16;;;;;;;505.13;352.92;;;;;;;25.72;33.57;100575.78;5103054;28;20031;-30
2022/10/23 09:43:42;;;;;;;625.55;446.42;;;;;;;25.85;33.12;100570.28;5110181;28;20031;-29
2022/10/23 09:46:09;;;;;;;1192.97;821.95;;;;;;;25.93;33.39;100578.88;5110061;28;20038;-34
2022/10/23 09:48:35;;;;;;;170.45;105.07;;;;;;;25.63;32.53;100579.25;5109742;28;20412;-27
2022/10/23 09:51:03;;;;;;;595.85;434.98;;;;;;;25.62;33.82;100566.72;5109543;28;20039;-27
2022/10/23 09:53:37;;;;;;;678.78;484.40;;;;;;;25.65;33.50;100557.91;5109929;28;20122;-27
2022/10/23 09:56:25;;;;;;;877.63;614.08;;;;;;;25.84;33.63;100565.13;5109646;28;20457;-27
2022/10/23 09:59:00;;;;;;;189.40;124.38;;;;;;;25.78;33.09;100558.16;5109302;28;20047;-27
2022/10/23 10:01:31;;;;;;;1324.40;859.95;;;;;;;25.82;33.08;100548.22;5109414;28;20043;-27
2022/10/23 10:03:57;;;;;;;1041.47;688.80;;;;;;;26.13;32.75;100550.25;5109457;28;20039;-27
2022/10/23 10:06:31;;;;;;;547.60;390.55;;;;;;;26.25;32.19;100558.69;5109474;28;20403;-27
2022/10/23 10:09:03;;;;;;;38.60;22.55;;;;;;;26.03;31.55;100521.25;5091392;28;20059;-31
2022/10/23 10:11:42;;;;;;;29.95;13.65;;;;;;;26.12;31.51;100543.19;5109085;28;20034;-27
2022/10/23 10:14:26;;;;;;;37.28;17.20;;;;;;;26.22;31.42;100540.97;5091202;28;20027;-29
2022/10/23 10:17:00;;;;;;;69.93;31.83;;;;;;;26.36;31.33;100535.44;5109522;28;20035;-27
2022/10/23 10:19:40;;;;;;;68.18;31.33;;;;;;;26.61;31.00;100535.91;5109210;28;20110;-27
2022/10/23 10:22:27;;;;;;;10.52;4.78;;;;;;;26.60;30.60;100539.75;5109174;28;20037;-30
2022/10/23 10:25:26;;;;;;;18.08;8.77;;;;;;;26.69;30.38;100535.13;5108277;28;20088;-26
2022/10/23 10:28:16;;;;;;;69.60;47.05;;;;;;;26.84;29.53;100517.47;5109376;28;20034;-27
2022/10/23 10:31:09;;;;;;;24.63;13.73;;;;;;;27.13;29.68;100519.63;5109502;28;20146;-27
2022/10/23 10:33:55;;;;;;;10.02;5.63;;;;;;;27.20;29.74;100525.44;5109177;28;20032;-28
2022/10/23 10:36:53;;;;;;;7.03;3.47;;;;;;;26.74;29.77;100524.03;5108995;28;20118;-29
2022/10/23 10:39:44;;;;;;;8.65;3.70;;;;;;;26.95;30.32;100517.97;5109390;28;20020;-30
2022/10/23 10:42:41;;;;;;;7.88;4.22;;;;;;;27.20;29.68;100510.97;5108876;28;20031;-26
2022/10/23 10:45:24;;;;;;;8.73;3.60;;;;;;;27.02;29.92;100510.13;5108801;28;20020;-28
2022/10/23 10:47:50;;;;;;;9.65;4.00;;;;;;;26.85;30.13;100514.44;5109239;28;20032;-28
2022/10/23 10:50:21;;;;;;;11.57;4.85;;;;;;;27.43;30.29;100508.91;5108589;28;20380;-29
2022/10/23 10:53:13;;;;;;;11.68;4.70;;;;;;;27.39;28.45;100502.47;5109246;28;20046;-27
2022/10/23 10:55:41;;;;;;;7.25;3.72;;;;;;;27.46;28.76;100494.56;5108499;28;20035;-32
2022/10/23 10:58:42;;;;;;;10.40;4.70;;;;;;;27.79;28.40;100491.34;5108745;28;20035;-28
2022/10/23 11:01:49;;;;;;;9.23;3.65;;;;;;;27.48;29.00;100506.00;5108092;28;20051;-29
2022/10/23 11:04:31;;;;;;;12.32;5.35;;;;;;;27.62;29.02;100514.88;5108248;28;20507;-27
2022/10/23 11:07:00;;;;;;;9.25;4.28;;;;;;;27.52;28.41;100503.44;5090055;28;20024;-29
2022/10/23 11:09:28;;;;;;;8.02;3.50;;;;;;;27.51;28.76;100496.34;5089719;28;20743;-28
2022/10/23 11:11:54;;;;;;;8.45;3.53;;;;;;;27.46;29.02;100489.09;5108127;28;20032;-29
2022/10/23 11:14:23;;;;;;;8.05;3.35;;;;;;;26.99;29.13;100466.97;5108069;28;20039;-30
2022/10/23 11:17:18;;;;;;;10.90;4.47;;;;;;;27.28;29.41;100492.94;5089632;28;20027;-28
2022/10/23 11:20:14;;;;;;;8.48;4.00;;;;;;;27.59;28.70;100462.69;5080595;28;20547;-29
2022/10/23 11:23:24;;;;;;;8.38;3.67;;;;;;;27.59;28.70;100488.13;5107881;28;20026;-28
2022/10/23 11:26:19;;;;;;;10.02;4.03;;;;;;;27.92;28.65;100484.88;5089632;28;20035;-28
2022/10/23 11:29:07;;;;;;;19.23;7.93;;;;;;;27.98;28.25;100483.59;5107706;28;20024;-28
2022/10/23 11:31:35;;;;;;;10.23;5.10;;;;;;;27.72;27.98;100480.84;5108637;28;20055;-33